createdAt,value
2018-01-30T00:01:41.592Z,23.13
2018-01-30T00:04:14.101Z,20.47
2018-01-30T00:06:46.621Z,19.20
2018-01-30T00:09:19.107Z,20.77
2018-01-30T00:11:51.708Z,16.63
2018-01-30T00:14:24.222Z,18.27
2018-01-30T00:16:57.752Z,15.47
2018-01-30T00:19:30.255Z,23.17
2018-01-30T00:22:02.769Z,15.50
2018-01-30T00:24:35.257Z,19.70
2018-01-30T00:27:09.729Z,22.93
2018-01-30T00:29:42.239Z,18.77
2018-01-30T00:32:14.760Z,17.73
2018-01-30T00:34:47.265Z,16.97
2018-01-30T00:37:19.787Z,19.53
2018-01-30T00:39:52.399Z,16.37
2018-01-30T00:42:24.915Z,21.33
2018-01-30T00:44:57.395Z,15.90
2018-01-30T00:47:29.908Z,16.27
2018-01-30T00:50:02.401Z,17.73
2018-01-30T00:52:34.941Z,19.83
2018-01-30T00:55:07.444Z,19.30
2018-01-30T00:57:39.964Z,17.27
2018-01-30T01:00:12.460Z,21.77
2018-01-30T01:02:44.987Z,22.47
2018-01-30T01:05:17.484Z,19.03
2018-01-30T01:07:49.996Z,24.40
2018-01-30T01:10:22.471Z,17.50
2018-01-30T01:12:55.014Z,18.67
2018-01-30T01:15:27.515Z,17.93
2018-01-30T01:18:00.029Z,27.60
2018-01-30T01:20:32.523Z,23.10
2018-01-30T01:23:05.031Z,18.37
2018-01-30T01:25:37.520Z,13.27
2018-01-30T01:28:10.030Z,14.13
2018-01-30T01:30:42.530Z,17.57
2018-01-30T01:33:15.046Z,13.17
2018-01-30T01:35:47.535Z,20.40
2018-01-30T01:38:20.057Z,16.07
2018-01-30T01:40:52.545Z,19.40
2018-01-30T01:43:25.084Z,18.50
2018-01-30T01:45:57.579Z,16.53
2018-01-30T01:48:30.090Z,16.97
2018-01-30T01:51:02.579Z,17.67
2018-01-30T01:53:35.082Z,18.13
2018-01-30T01:56:07.570Z,19.17
2018-01-30T01:58:40.092Z,18.67
2018-01-30T02:01:12.612Z,15.30
2018-01-30T02:03:45.124Z,15.80
2018-01-30T02:06:17.620Z,19.77
2018-01-30T02:08:50.141Z,15.90
2018-01-30T02:11:22.623Z,17.93
2018-01-30T02:13:55.961Z,18.90
2018-01-30T02:16:28.463Z,18.27
2018-01-30T02:19:00.981Z,16.47
2018-01-30T02:21:33.476Z,17.57
2018-01-30T02:24:05.982Z,14.97
2018-01-30T02:26:38.471Z,18.50
2018-01-30T02:29:10.984Z,13.47
2018-01-30T02:31:43.475Z,13.03
2018-01-30T02:34:16.046Z,14.23
2018-01-30T02:36:48.558Z,16.87
2018-01-30T02:39:21.087Z,13.90
2018-01-30T02:41:53.590Z,11.03
2018-01-30T02:44:26.110Z,12.43
2018-01-30T02:46:58.630Z,17.73
2018-01-30T02:49:31.126Z,13.27
2018-01-30T02:52:03.668Z,13.50
2018-01-30T02:54:36.241Z,14.03
2018-01-30T02:57:08.774Z,13.47
2018-01-30T02:59:41.264Z,17.27
2018-01-30T03:02:13.777Z,16.40
2018-01-30T03:04:46.272Z,16.33
2018-01-30T03:07:18.782Z,20.87
2018-01-30T03:09:51.289Z,20.50
2018-01-30T03:12:23.800Z,15.97
2018-01-30T03:14:56.285Z,12.63
2018-01-30T03:17:28.786Z,16.50
2018-01-30T03:20:01.281Z,19.60
2018-01-30T03:22:33.789Z,22.20
2018-01-30T03:25:06.276Z,15.90
2018-01-30T03:27:38.782Z,15.10
2018-01-30T03:30:11.283Z,16.77
2018-01-30T03:32:43.809Z,20.07
2018-01-30T03:35:16.296Z,22.80
2018-01-30T03:37:48.803Z,18.93
2018-01-30T03:40:21.290Z,25.80
2018-01-30T03:42:53.799Z,21.77
2018-01-30T03:45:26.282Z,23.70
2018-01-30T03:47:58.812Z,18.47
2018-01-30T03:50:31.303Z,23.43
2018-01-30T03:53:03.815Z,19.40
2018-01-30T03:55:36.311Z,21.33
2018-01-30T03:58:08.822Z,18.00
2018-01-30T04:00:41.319Z,24.80
2018-01-30T04:03:13.835Z,17.77
2018-01-30T04:05:46.319Z,23.90
2018-01-30T04:08:18.857Z,21.03
2018-01-30T04:10:51.348Z,24.10
2018-01-30T04:13:23.856Z,20.00
2018-01-30T04:15:56.351Z,19.47
2018-01-30T04:18:28.864Z,22.67
2018-01-30T04:21:01.403Z,20.57
2018-01-30T04:23:33.923Z,19.40
2018-01-30T04:26:06.420Z,23.97
2018-01-30T04:28:38.932Z,20.10
2018-01-30T04:31:11.443Z,18.37
2018-01-30T04:33:43.957Z,18.93
2018-01-30T04:36:16.446Z,17.30
2018-01-30T04:38:48.972Z,19.87
2018-01-30T04:41:21.470Z,20.20
2018-01-30T04:43:53.975Z,23.53
2018-01-30T04:46:26.505Z,25.17
2018-01-30T04:48:59.057Z,19.47
2018-01-30T04:51:31.571Z,18.67
2018-01-30T04:54:04.082Z,21.90
2018-01-30T04:56:36.586Z,23.93
2018-01-30T04:59:09.101Z,21.80
2018-01-30T05:01:41.601Z,17.33
2018-01-30T05:04:14.118Z,16.03
2018-01-30T05:06:46.604Z,20.33
2018-01-30T05:09:19.116Z,21.53
2018-01-30T05:11:51.607Z,19.90
2018-01-30T05:14:24.116Z,18.70
2018-01-30T05:16:56.639Z,21.37
2018-01-30T05:19:29.151Z,27.07
2018-01-30T05:22:01.637Z,28.83
2018-01-30T05:24:34.224Z,28.20
2018-01-30T05:27:06.716Z,20.53
2018-01-30T05:29:39.232Z,22.57
2018-01-30T05:32:11.729Z,25.60
2018-01-30T05:34:44.237Z,24.90
2018-01-30T05:37:16.750Z,25.67
2018-01-30T05:39:49.254Z,25.93
2018-01-30T05:42:21.772Z,20.83
2018-01-30T05:44:54.303Z,29.70
2018-01-30T05:47:26.809Z,25.50
2018-01-30T05:49:59.338Z,27.17
2018-01-30T05:52:31.826Z,26.37
2018-01-30T05:55:04.335Z,20.33
2018-01-30T05:57:36.826Z,23.17
2018-01-30T06:00:09.344Z,18.83
2018-01-30T06:02:41.839Z,30.10
2018-01-30T06:05:14.345Z,21.17
2018-01-30T06:07:46.838Z,18.17
2018-01-30T06:10:19.372Z,14.60
2018-01-30T06:12:51.864Z,25.10
2018-01-30T06:15:24.372Z,22.03
2018-01-30T06:17:56.872Z,26.03
2018-01-30T06:20:29.492Z,18.10
2018-01-30T06:23:02.016Z,21.93
2018-01-30T06:25:34.529Z,25.80
2018-01-30T06:28:07.066Z,28.50
2018-01-30T06:30:39.556Z,25.77
2018-01-30T06:33:12.061Z,21.90
2018-01-30T06:35:44.607Z,21.03
2018-01-30T06:38:17.148Z,15.60
2018-01-30T06:40:49.646Z,23.97
2018-01-30T06:43:22.152Z,24.03
2018-01-30T06:45:54.670Z,23.77
2018-01-30T06:48:27.185Z,31.23
2018-01-30T06:50:59.678Z,23.33
2018-01-30T06:53:32.266Z,16.57
2018-01-30T06:56:04.760Z,15.93
2018-01-30T06:58:37.268Z,21.57
2018-01-30T07:01:09.763Z,26.30
2018-01-30T07:03:42.299Z,21.50
2018-01-30T07:06:14.818Z,23.60
2018-01-30T07:08:47.347Z,22.07
2018-01-30T07:11:19.834Z,22.30
2018-01-30T07:13:52.352Z,25.23
2018-01-30T07:16:24.852Z,18.07
2018-01-30T07:18:57.372Z,21.77
2018-01-30T07:21:29.871Z,27.07
2018-01-30T07:24:02.375Z,23.37
2018-01-30T07:26:34.871Z,22.17
2018-01-30T07:29:07.425Z,22.53
2018-01-30T07:31:39.916Z,24.27
2018-01-30T07:34:12.437Z,26.53
2018-01-30T07:36:44.925Z,23.67
2018-01-30T07:39:17.447Z,20.60
2018-01-30T07:41:49.956Z,25.93
2018-01-30T07:44:22.483Z,27.27
2018-01-30T07:46:57.995Z,24.03
2018-01-30T07:49:30.509Z,16.00
2018-01-30T07:52:03.069Z,27.67
2018-01-30T07:54:35.575Z,24.40
2018-01-30T07:57:08.076Z,18.13
2018-01-30T07:59:40.618Z,22.63
2018-01-30T08:02:13.102Z,21.13
2018-01-30T08:04:45.616Z,19.53
2018-01-30T08:07:18.112Z,23.20
2018-01-30T08:09:50.643Z,25.83
2018-01-30T08:12:23.128Z,21.33
2018-01-30T08:14:55.635Z,19.10
2018-01-30T08:17:28.153Z,23.63
2018-01-30T08:20:00.726Z,19.47
2018-01-30T08:22:33.267Z,17.13
2018-01-30T08:25:05.772Z,19.87
2018-01-30T08:27:38.255Z,22.47
2018-01-30T08:30:10.780Z,20.30
2018-01-30T08:32:43.315Z,18.57
2018-01-30T08:35:15.859Z,21.17
2018-01-30T08:37:48.359Z,21.97
2018-01-30T08:40:20.884Z,18.20
2018-01-30T08:42:53.368Z,20.87
2018-01-30T08:45:25.883Z,19.93
2018-01-30T08:47:58.691Z,16.77
2018-01-30T08:50:31.208Z,20.10
2018-01-30T08:53:03.700Z,16.77
2018-01-30T08:55:36.210Z,19.73
2018-01-30T08:58:08.715Z,18.87
2018-01-30T09:00:41.237Z,24.83
2018-01-30T09:03:13.724Z,19.67
2018-01-30T09:05:46.240Z,18.53
2018-01-30T09:08:18.726Z,22.93
2018-01-30T09:10:51.240Z,19.40
2018-01-30T09:13:23.731Z,19.70
2018-01-30T09:15:56.236Z,21.07
2018-01-30T09:18:28.718Z,19.13
2018-01-30T09:21:01.232Z,23.30
2018-01-30T09:23:33.729Z,26.70
2018-01-30T09:26:06.248Z,21.53
2018-01-30T09:28:38.739Z,19.60
2018-01-30T09:31:11.249Z,23.77
2018-01-30T09:33:43.737Z,18.10
2018-01-30T09:36:16.247Z,21.90
2018-01-30T09:38:48.739Z,19.73
2018-01-30T09:41:21.247Z,20.63
2018-01-30T09:43:53.749Z,20.23
2018-01-30T09:46:26.271Z,26.37
2018-01-30T09:48:58.757Z,22.90
2018-01-30T09:51:31.287Z,16.47
2018-01-30T09:54:03.796Z,20.13
2018-01-30T09:56:36.290Z,23.37
2018-01-30T09:59:08.822Z,20.43
2018-01-30T10:01:41.319Z,22.27
2018-01-30T10:04:13.850Z,19.43
2018-01-30T10:06:46.349Z,13.77
2018-01-30T10:09:18.864Z,14.60
2018-01-30T10:11:51.369Z,16.70
2018-01-30T10:14:23.888Z,19.87
2018-01-30T10:16:56.380Z,19.87
2018-01-30T10:19:28.900Z,16.23
2018-01-30T10:22:01.396Z,16.87
2018-01-30T10:24:33.924Z,24.70
2018-01-30T10:27:06.417Z,23.10
2018-01-30T10:29:38.930Z,16.97
2018-01-30T10:32:11.423Z,16.40
2018-01-30T10:34:43.937Z,19.13
2018-01-30T10:37:16.430Z,23.03
2018-01-30T10:39:48.943Z,21.40
2018-01-30T10:42:21.447Z,24.13
2018-01-30T10:44:53.956Z,17.47
2018-01-30T10:47:26.470Z,21.93
2018-01-30T10:49:58.998Z,19.53
2018-01-30T10:52:31.491Z,20.10
2018-01-30T10:55:04.011Z,17.13
2018-01-30T10:57:36.515Z,21.13
2018-01-30T11:00:09.033Z,21.50
2018-01-30T11:02:41.521Z,13.13
2018-01-30T11:05:14.032Z,17.37
2018-01-30T11:07:46.527Z,17.23
2018-01-30T11:10:19.068Z,16.33
2018-01-30T11:12:51.561Z,11.83
2018-01-30T11:15:24.066Z,14.30
2018-01-30T11:17:56.553Z,16.13
2018-01-30T11:20:29.066Z,17.17
2018-01-30T11:23:01.566Z,23.67
2018-01-30T11:25:34.078Z,15.57
2018-01-30T11:28:06.576Z,21.33
2018-01-30T11:30:39.101Z,22.10
2018-01-30T11:33:11.604Z,15.20
2018-01-30T11:35:44.184Z,19.47
2018-01-30T11:38:16.676Z,16.47
2018-01-30T11:40:49.193Z,25.03
2018-01-30T11:43:21.699Z,18.00
2018-01-30T11:45:54.224Z,16.70
2018-01-30T11:48:26.719Z,12.73
2018-01-30T11:50:59.231Z,15.77
2018-01-30T11:53:31.736Z,10.93
2018-01-30T11:56:04.252Z,15.53
2018-01-30T11:58:36.736Z,14.93
2018-01-30T12:01:09.260Z,10.80
2018-01-30T12:03:41.756Z,13.40
2018-01-30T12:06:14.276Z,12.23
2018-01-30T12:08:46.795Z,11.53
2018-01-30T12:11:19.322Z,18.33
2018-01-30T12:13:51.815Z,14.43
2018-01-30T12:16:24.339Z,12.03
2018-01-30T12:18:56.859Z,13.37
2018-01-30T12:21:29.386Z,11.87
2018-01-30T12:24:01.886Z,12.53
2018-01-30T12:26:34.463Z,21.07
2018-01-30T12:29:06.927Z,10.73
2018-01-30T12:31:39.449Z,14.40
2018-01-30T12:34:11.936Z,18.40
2018-01-30T12:36:44.452Z,10.87
2018-01-30T12:39:16.954Z,15.80
2018-01-30T12:41:49.472Z,10.20
2018-01-30T12:44:21.976Z,13.33
2018-01-30T12:46:54.495Z,13.37
2018-01-30T12:49:27.002Z,12.67
2018-01-30T12:51:59.511Z,14.30
2018-01-30T12:54:31.995Z,8.57
2018-01-30T12:57:04.518Z,13.77
2018-01-30T12:59:37.013Z,9.13
2018-01-30T13:02:09.626Z,9.93
2018-01-30T13:04:42.035Z,10.23
2018-01-30T13:07:14.548Z,13.00
2018-01-30T13:09:47.031Z,9.33
2018-01-30T13:12:19.556Z,10.13
2018-01-30T13:14:52.060Z,10.70
2018-01-30T13:17:24.578Z,13.33
2018-01-30T13:19:57.108Z,13.10
2018-01-30T13:22:29.630Z,6.87
2018-01-30T13:25:02.156Z,14.60
2018-01-30T13:27:34.668Z,10.93
2018-01-30T13:30:07.230Z,12.10
2018-01-30T13:32:39.725Z,7.53
2018-01-30T13:35:12.242Z,11.23
2018-01-30T13:37:44.754Z,14.47
2018-01-30T13:40:17.271Z,11.57
2018-01-30T13:42:49.761Z,11.13
2018-01-30T13:45:22.288Z,10.13
2018-01-30T13:47:54.807Z,10.10
2018-01-30T13:50:27.335Z,12.50
2018-01-30T13:52:59.834Z,10.57
2018-01-30T13:55:32.354Z,7.67
2018-01-30T13:58:04.871Z,11.03
2018-01-30T14:00:37.374Z,8.33
2018-01-30T14:03:09.867Z,14.60
2018-01-30T14:05:42.368Z,13.57
2018-01-30T14:08:14.871Z,12.97
2018-01-30T14:10:47.390Z,9.57
2018-01-30T14:13:19.880Z,14.60
2018-01-30T14:15:52.400Z,11.97
2018-01-30T14:18:24.928Z,11.87
2018-01-30T14:20:57.427Z,9.67
2018-01-30T14:23:29.919Z,13.03
2018-01-30T14:26:02.436Z,8.90
2018-01-30T14:28:34.929Z,14.70
2018-01-30T14:31:07.452Z,10.13
2018-01-30T14:33:39.942Z,8.57
2018-01-30T14:36:12.450Z,7.63
2018-01-30T14:38:44.937Z,7.63
2018-01-30T14:41:17.471Z,15.97
2018-01-30T14:43:49.964Z,11.20
2018-01-30T14:46:22.462Z,9.50
2018-01-30T14:48:54.976Z,14.27
2018-01-30T14:51:27.488Z,8.17
2018-01-30T14:53:59.994Z,8.60
2018-01-30T14:56:32.496Z,9.23
2018-01-30T14:59:04.991Z,15.07
2018-01-30T15:01:37.508Z,11.33
2018-01-30T15:04:10.010Z,11.17
2018-01-30T15:06:42.528Z,9.67
2018-01-30T15:09:15.026Z,10.37
2018-01-30T15:11:47.532Z,6.63
2018-01-30T15:14:20.023Z,9.27
2018-01-30T15:16:52.534Z,14.83
2018-01-30T15:19:26.686Z,9.53
2018-01-30T15:21:59.202Z,12.93
2018-01-30T15:24:31.708Z,10.00
2018-01-30T15:27:04.220Z,9.03
2018-01-30T15:29:36.706Z,7.37
2018-01-30T15:32:09.215Z,11.87
2018-01-30T15:34:41.698Z,14.77
2018-01-30T15:37:14.218Z,9.00
2018-01-30T15:39:46.783Z,8.20
2018-01-30T15:42:19.267Z,10.63
2018-01-30T15:44:51.746Z,11.77
2018-01-30T15:47:24.272Z,10.97
2018-01-30T15:49:56.805Z,10.20
2018-01-30T15:52:29.326Z,12.83
2018-01-30T15:55:01.840Z,11.93
2018-01-30T15:57:34.359Z,9.37
2018-01-30T16:00:06.850Z,8.57
2018-01-30T16:02:39.379Z,14.80
2018-01-30T16:05:11.864Z,11.47
2018-01-30T16:07:44.379Z,12.43
2018-01-30T16:10:16.861Z,7.20
2018-01-30T16:12:49.374Z,7.77
2018-01-30T16:15:21.879Z,10.73
2018-01-30T16:17:54.380Z,9.33
2018-01-30T16:20:27.819Z,9.57
2018-01-30T16:23:00.361Z,8.97
2018-01-30T16:25:32.852Z,9.63
2018-01-30T16:28:05.748Z,8.93
2018-01-30T16:30:38.244Z,7.77
2018-01-30T16:33:10.765Z,11.27
2018-01-30T16:35:43.269Z,8.90
2018-01-30T16:38:15.779Z,9.13
2018-01-30T16:40:48.291Z,21.07
2018-01-30T16:43:20.815Z,17.00
2018-01-30T16:45:53.305Z,15.77
2018-01-30T16:48:27.928Z,15.60
2018-01-30T16:51:00.463Z,16.37
2018-01-30T16:53:32.993Z,15.10
2018-01-30T16:56:05.502Z,12.80
2018-01-30T16:58:38.021Z,14.67
2018-01-30T17:01:10.537Z,15.70
2018-01-30T17:03:43.076Z,13.17
2018-01-30T17:06:15.719Z,10.97
2018-01-30T17:08:48.234Z,15.13
2018-01-30T17:11:20.817Z,11.23
2018-01-30T17:13:53.447Z,8.57
2018-01-30T17:16:25.984Z,9.93
2018-01-30T17:18:58.625Z,8.60
2018-01-30T17:21:31.175Z,7.93
2018-01-30T17:24:03.833Z,8.50
2018-01-30T17:26:36.343Z,10.27
2018-01-30T17:29:08.836Z,10.93
2018-01-30T17:31:41.721Z,12.47
2018-01-30T17:34:14.227Z,11.07
2018-01-30T17:36:46.779Z,11.93
2018-01-30T17:39:19.266Z,13.70
2018-01-30T17:41:51.788Z,14.60
2018-01-30T17:44:24.288Z,12.37
2018-01-30T17:46:56.833Z,13.03
2018-01-30T17:49:29.318Z,11.37
2018-01-30T17:52:01.828Z,14.27
2018-01-30T17:54:34.343Z,9.10
2018-01-30T17:57:06.863Z,10.97
2018-01-30T17:59:39.358Z,19.13
2018-01-30T18:02:11.863Z,22.97
2018-01-30T18:04:44.892Z,16.83
2018-01-30T18:07:17.597Z,19.00
2018-01-30T18:09:50.998Z,17.00
2018-01-30T18:12:23.515Z,12.80
2018-01-30T18:14:56.007Z,19.33
2018-01-30T18:17:28.520Z,13.70
2018-01-30T18:20:01.022Z,12.80
2018-01-30T18:22:33.533Z,15.13
2018-01-30T18:25:06.022Z,12.70
2018-01-30T18:27:38.528Z,12.67
2018-01-30T18:30:11.272Z,11.70
2018-01-30T18:32:43.831Z,8.77
2018-01-30T18:35:16.420Z,10.30
2018-01-30T18:37:48.963Z,11.63
2018-01-30T18:40:21.452Z,14.00
2018-01-30T18:42:54.037Z,10.47
2018-01-30T18:45:26.903Z,9.77
2018-01-30T18:48:00.550Z,14.20
2018-01-30T18:50:34.830Z,14.23
2018-01-30T18:53:07.329Z,10.73
2018-01-30T18:55:40.306Z,8.10
2018-01-30T18:58:12.851Z,7.80
2018-01-30T19:00:45.355Z,11.77
2018-01-30T19:03:18.855Z,14.00
2018-01-30T19:05:51.347Z,8.17
2018-01-30T19:08:23.852Z,9.63
2018-01-30T19:10:56.498Z,13.97
2018-01-30T19:13:29.095Z,9.23
2018-01-30T19:16:01.594Z,13.67
2018-01-30T19:18:34.232Z,12.10
2018-01-30T19:21:06.723Z,10.03
2018-01-30T19:23:39.246Z,7.83
2018-01-30T19:26:11.739Z,11.03
2018-01-30T19:28:44.253Z,13.17
2018-01-30T19:31:16.750Z,25.57
2018-01-30T19:33:49.267Z,21.27
2018-01-30T19:36:21.766Z,18.70
2018-01-30T19:38:54.305Z,12.40
2018-01-30T19:41:26.788Z,13.10
2018-01-30T19:43:59.298Z,12.23
2018-01-30T19:46:31.799Z,15.03
2018-01-30T19:49:04.304Z,14.67
2018-01-30T19:51:36.817Z,13.80
2018-01-30T19:54:09.322Z,16.07
2018-01-30T19:56:41.824Z,15.90
2018-01-30T19:59:14.348Z,16.93
2018-01-30T20:01:46.852Z,13.50
2018-01-30T20:04:19.368Z,18.37
2018-01-30T20:06:51.866Z,21.13
2018-01-30T20:09:24.441Z,17.03
2018-01-30T20:11:57.210Z,13.93
2018-01-30T20:14:29.727Z,10.67
2018-01-30T20:17:02.219Z,17.93
2018-01-30T20:19:34.741Z,22.57
2018-01-30T20:22:07.247Z,12.80
2018-01-30T20:24:39.785Z,16.03
2018-01-30T20:27:12.279Z,16.10
2018-01-30T20:29:44.948Z,20.37
2018-01-30T20:32:17.470Z,14.80
2018-01-30T20:34:49.973Z,15.90
2018-01-30T20:37:23.413Z,24.43
2018-01-30T20:39:55.908Z,20.60
2018-01-30T20:42:28.432Z,18.83
2018-01-30T20:45:00.948Z,28.73
2018-01-30T20:47:33.468Z,21.63
2018-01-30T20:50:05.968Z,24.63
2018-01-30T20:52:38.489Z,21.40
2018-01-30T20:55:10.990Z,19.47
2018-01-30T20:57:43.508Z,25.73
2018-01-30T21:00:16.021Z,21.50
2018-01-30T21:02:48.555Z,24.37
2018-01-30T21:05:21.060Z,22.87
2018-01-30T21:07:53.567Z,17.07
2018-01-30T21:10:26.089Z,26.50
2018-01-30T21:12:58.613Z,20.50
2018-01-30T21:15:31.619Z,25.83
2018-01-30T21:18:04.169Z,19.23
2018-01-30T21:20:36.679Z,26.53
2018-01-30T21:23:09.205Z,24.33
2018-01-30T21:25:41.702Z,31.60
2018-01-30T21:28:14.213Z,25.57
2018-01-30T21:30:47.307Z,24.53
2018-01-30T21:33:19.860Z,31.90
2018-01-30T21:35:53.305Z,32.60
2018-01-30T21:38:27.491Z,43.27
2018-01-30T21:41:00.259Z,36.20
2018-01-30T21:43:33.135Z,34.63
2018-01-30T21:46:05.904Z,37.37
2018-01-30T21:48:38.822Z,38.87
2018-01-30T21:51:11.659Z,37.43
2018-01-30T21:53:44.698Z,40.17
2018-01-30T21:56:17.611Z,38.03
2018-01-30T21:58:50.168Z,39.30
2018-01-30T22:01:23.459Z,38.20
2018-01-30T22:03:55.975Z,38.13
2018-01-30T22:06:28.473Z,38.67
2018-01-30T22:09:01.033Z,42.40
2018-01-30T22:11:33.531Z,35.97
2018-01-30T22:14:06.046Z,36.00
2018-01-30T22:16:39.373Z,43.70
2018-01-30T22:19:11.882Z,43.73
2018-01-30T22:21:44.390Z,45.07
2018-01-30T22:24:16.908Z,45.10
2018-01-30T22:26:49.428Z,46.43
2018-01-30T22:29:21.942Z,41.37
2018-01-30T22:31:54.428Z,47.10
2018-01-30T22:34:26.941Z,36.20
2018-01-30T22:36:59.441Z,43.67
2018-01-30T22:39:31.954Z,33.60
2018-01-30T22:42:04.454Z,41.27
2018-01-30T22:44:36.986Z,40.90
